createdAt,value
2019-01-05T00:00:58.833Z,99.99
2019-01-05T00:01:58.838Z,99.99
2019-01-05T00:02:58.853Z,99.91
2019-01-05T00:03:58.866Z,99.99
2019-01-05T00:04:58.874Z,99.99
2019-01-05T00:05:58.887Z,99.99
2019-01-05T00:06:58.902Z,99.99
2019-01-05T00:07:58.910Z,99.99
2019-01-05T00:08:58.920Z,99.99
2019-01-05T00:09:58.963Z,99.73
2019-01-05T00:10:58.946Z,99.91
2019-01-05T00:11:58.978Z,99.99
2019-01-05T00:12:58.974Z,99.99
2019-01-05T00:13:58.991Z,99.99
2019-01-05T00:14:58.997Z,99.73
2019-01-05T00:15:59.061Z,99.82
2019-01-05T00:16:59.019Z,99.99
2019-01-05T00:17:59.029Z,99.99
2019-01-05T00:18:59.042Z,99.99
2019-01-05T00:19:59.058Z,99.99
2019-01-05T00:20:59.063Z,99.99
2019-01-05T00:21:59.076Z,99.99
2019-01-05T00:22:59.097Z,99.99
2019-01-05T00:23:59.103Z,99.99
2019-01-05T00:24:59.117Z,99.99
2019-01-05T00:25:59.128Z,99.99
2019-01-05T00:26:59.147Z,99.99
2019-01-05T00:27:59.150Z,99.73
2019-01-05T00:28:59.163Z,99.99
2019-01-05T00:29:59.177Z,99.99
2019-01-05T00:30:59.189Z,99.91
2019-01-05T00:31:59.198Z,99.99
2019-01-05T00:32:59.217Z,99.99
2019-01-05T00:33:59.223Z,99.99
2019-01-05T00:34:59.239Z,99.99
2019-01-05T00:35:59.249Z,99.82
2019-01-05T00:36:59.260Z,99.99
2019-01-05T00:37:59.275Z,99.91
2019-01-05T00:38:59.285Z,99.99
2019-01-05T00:39:59.299Z,99.99
2019-01-05T00:40:59.314Z,99.99
2019-01-05T00:41:59.322Z,99.99
2019-01-05T00:42:59.336Z,99.91
2019-01-05T00:43:59.376Z,99.99
2019-01-05T00:44:59.394Z,99.99
2019-01-05T00:45:59.368Z,99.99
2019-01-05T00:46:59.391Z,99.99
2019-01-05T00:47:59.396Z,99.99
2019-01-05T00:48:59.404Z,99.99
2019-01-05T00:49:59.419Z,99.99
2019-01-05T00:50:59.432Z,99.99
2019-01-05T00:51:59.443Z,99.99
2019-01-05T00:52:59.456Z,99.99
2019-01-05T00:53:59.471Z,99.99
2019-01-05T00:54:59.484Z,99.99
2019-01-05T00:55:59.495Z,99.99
2019-01-05T00:56:59.503Z,99.99
2019-01-05T00:57:59.521Z,99.91
2019-01-05T00:58:59.535Z,99.91
2019-01-05T00:59:59.543Z,99.54
2019-01-05T01:00:59.551Z,99.99
2019-01-05T01:01:59.564Z,99.99
2019-01-05T01:02:59.580Z,99.99
2019-01-05T01:03:59.601Z,99.99
2019-01-05T01:04:59.601Z,99.99
2019-01-05T01:05:59.624Z,99.99
2019-01-05T01:06:59.629Z,99.99
2019-01-05T01:07:59.638Z,99.99
2019-01-05T01:08:59.650Z,99.99
2019-01-05T01:09:59.662Z,99.99
2019-01-05T01:10:59.675Z,99.99
2019-01-05T01:11:59.689Z,99.99
2019-01-05T01:12:59.699Z,99.99
2019-01-05T01:13:59.711Z,99.99
2019-01-05T01:14:59.724Z,99.99
2019-01-05T01:15:59.737Z,99.99
2019-01-05T01:16:59.745Z,99.99
2019-01-05T01:17:59.763Z,99.99
2019-01-05T01:18:59.774Z,99.99
2019-01-05T01:19:59.787Z,99.99
2019-01-05T01:20:59.802Z,99.99
2019-01-05T01:21:59.810Z,99.99
2019-01-05T01:22:59.818Z,99.99
2019-01-05T01:23:59.834Z,99.99
2019-01-05T01:24:59.847Z,99.97
2019-01-05T01:25:59.856Z,99.97
2019-01-05T01:26:59.867Z,99.99
2019-01-05T01:27:59.883Z,99.99
2019-01-05T01:28:59.893Z,99.99
2019-01-05T01:29:59.910Z,99.97
2019-01-05T01:30:59.920Z,99.99
2019-01-05T01:31:59.931Z,99.99
2019-01-05T01:32:59.955Z,99.99
2019-01-05T01:33:59.960Z,99.99
2019-01-05T01:34:59.976Z,99.87
2019-01-05T01:35:59.989Z,99.97
2019-01-05T01:36:59.992Z,99.99
2019-01-05T01:38:00.004Z,99.97
2019-01-05T01:39:00.018Z,99.99
2019-01-05T01:40:00.031Z,99.99
2019-01-05T01:41:00.041Z,99.97
2019-01-05T01:42:00.055Z,99.99
2019-01-05T01:43:00.069Z,99.99
2019-01-05T01:44:00.079Z,99.99
2019-01-05T01:45:00.111Z,99.99
2019-01-05T01:46:00.100Z,99.99
2019-01-05T01:47:00.113Z,99.99
2019-01-05T01:48:00.133Z,99.99
2019-01-05T01:49:00.138Z,99.99
2019-01-05T01:50:00.177Z,99.99
2019-01-05T01:51:00.163Z,99.99
2019-01-05T01:52:00.175Z,99.99
2019-01-05T01:53:00.190Z,99.99
2019-01-05T01:54:00.203Z,99.99
2019-01-05T01:55:00.213Z,99.99
2019-01-05T01:56:00.228Z,99.99
2019-01-05T01:57:00.237Z,99.99
2019-01-05T01:58:00.255Z,99.99
2019-01-05T01:59:00.263Z,99.99
2019-01-05T02:00:00.273Z,99.99
2019-01-05T02:01:00.285Z,99.99
2019-01-05T02:02:00.304Z,99.99
2019-01-05T02:03:05.694Z,99.99
2019-01-05T02:04:00.325Z,99.99
2019-01-05T02:05:00.334Z,99.99
2019-01-05T02:06:00.348Z,99.99
2019-01-05T02:07:00.362Z,99.99
2019-01-05T02:08:00.372Z,99.99
2019-01-05T02:09:00.386Z,99.99
2019-01-05T02:10:00.412Z,99.99
2019-01-05T02:11:00.411Z,99.99
2019-01-05T02:12:00.425Z,99.99
2019-01-05T02:13:00.437Z,99.99
2019-01-05T02:14:00.450Z,99.99
2019-01-05T02:15:00.473Z,99.99
2019-01-05T02:16:00.472Z,99.99
2019-01-05T02:17:00.493Z,99.99
2019-01-05T02:18:00.501Z,99.99
2019-01-05T02:19:00.515Z,99.99
2019-01-05T02:20:00.529Z,99.99
2019-01-05T02:21:00.531Z,99.99
2019-01-05T02:22:00.544Z,99.99
2019-01-05T02:23:00.574Z,99.99
2019-01-05T02:24:00.571Z,99.99
2019-01-05T02:25:00.585Z,99.99
2019-01-05T02:26:00.600Z,99.99
2019-01-05T02:27:00.609Z,99.99
2019-01-05T02:28:00.622Z,99.99
2019-01-05T02:29:00.645Z,99.99
2019-01-05T02:30:00.693Z,99.99
2019-01-05T02:31:00.658Z,99.99
2019-01-05T02:32:00.670Z,99.99
2019-01-05T02:33:00.680Z,99.99
2019-01-05T02:34:00.694Z,99.99
2019-01-05T02:35:00.722Z,99.99
2019-01-05T02:36:00.720Z,99.99
2019-01-05T02:37:00.734Z,99.99
2019-01-05T02:38:00.752Z,99.99
2019-01-05T02:39:00.758Z,99.99
2019-01-05T02:40:00.772Z,99.99
2019-01-05T02:41:00.778Z,99.99
2019-01-05T02:42:00.795Z,99.99
2019-01-05T02:43:00.808Z,99.99
2019-01-05T02:44:00.820Z,99.99
2019-01-05T02:45:00.829Z,99.99
2019-01-05T02:46:00.850Z,99.99
2019-01-05T02:47:00.862Z,99.99
2019-01-05T02:48:00.873Z,99.99
2019-01-05T02:49:00.878Z,99.99
2019-01-05T02:50:00.890Z,99.99
2019-01-05T02:51:00.901Z,99.99
2019-01-05T02:52:00.913Z,99.99
2019-01-05T02:53:00.926Z,99.99
2019-01-05T02:54:00.945Z,99.99
2019-01-05T02:55:00.951Z,99.99
2019-01-05T02:56:00.965Z,99.99
2019-01-05T02:57:00.974Z,99.99
2019-01-05T02:58:00.986Z,99.99
2019-01-05T02:59:01.000Z,99.99
2019-01-05T03:00:01.013Z,99.99
2019-01-05T03:01:01.024Z,99.99
2019-01-05T03:02:01.038Z,99.99
2019-01-05T03:03:01.053Z,99.99
2019-01-05T03:04:01.062Z,99.99
2019-01-05T03:05:01.082Z,99.99
2019-01-05T03:06:01.087Z,99.99
2019-01-05T03:07:01.100Z,99.99
2019-01-05T03:08:01.109Z,99.99
2019-01-05T03:09:01.124Z,99.99
2019-01-05T03:38:04.902Z,99.99
2019-01-05T03:39:04.875Z,99.99
2019-01-05T03:40:56.800Z,99.99
2019-01-05T03:41:56.777Z,99.99
2019-01-05T03:43:48.676Z,99.99
2019-01-05T03:44:48.673Z,99.99
2019-01-05T03:46:40.604Z,99.99
2019-01-05T03:47:40.585Z,99.99
2019-01-05T03:49:32.510Z,99.99
2019-01-05T03:50:32.522Z,99.99
2019-01-05T03:52:24.441Z,99.99
2019-01-05T03:53:24.433Z,99.99
2019-01-05T03:55:16.329Z,99.99
2019-01-05T03:56:16.347Z,99.99
2019-01-05T03:58:08.261Z,99.99
2019-01-05T03:59:08.249Z,99.99
2019-01-05T04:01:00.200Z,99.99
2019-01-05T04:02:00.183Z,99.99
2019-01-05T04:03:00.194Z,99.99
2019-01-05T04:04:00.204Z,99.99
2019-01-05T04:05:00.217Z,99.99
2019-01-05T04:06:00.266Z,99.99
2019-01-05T04:07:00.239Z,99.99
2019-01-05T04:08:00.255Z,99.99
2019-01-05T04:09:00.269Z,99.99
2019-01-05T04:10:00.275Z,99.99
2019-01-05T04:11:00.285Z,99.99
2019-01-05T04:12:00.308Z,99.99
2019-01-05T04:13:00.313Z,99.99
2019-01-05T04:14:00.328Z,99.99
2019-01-05T04:15:00.340Z,99.99
2019-01-05T04:16:00.353Z,99.99
2019-01-05T04:17:00.368Z,99.99
2019-01-05T04:18:00.373Z,99.99
2019-01-05T04:19:00.389Z,99.99
2019-01-05T04:20:00.395Z,99.99
2019-01-05T04:21:00.405Z,99.99
2019-01-05T04:22:00.420Z,99.99
2019-01-05T04:23:00.433Z,99.99
2019-01-05T04:24:00.444Z,99.99
2019-01-05T04:25:00.455Z,99.99
2019-01-05T04:26:00.468Z,99.99
2019-01-05T04:27:00.489Z,99.99
2019-01-05T04:28:00.497Z,99.99
2019-01-05T04:29:00.506Z,99.99
2019-01-05T04:30:00.520Z,99.99
2019-01-05T04:31:00.529Z,99.99
2019-01-05T04:32:00.545Z,99.99
2019-01-05T04:33:00.561Z,99.99
2019-01-05T04:34:00.567Z,99.99
2019-01-05T04:35:00.585Z,99.99
2019-01-05T04:36:00.591Z,99.99
2019-01-05T04:37:00.616Z,99.99
2019-01-05T04:38:00.616Z,99.99
2019-01-05T04:39:00.651Z,99.99
2019-01-05T04:40:00.651Z,99.99
2019-01-05T04:41:00.653Z,99.99
2019-01-05T04:42:00.689Z,99.99
2019-01-05T04:43:00.677Z,99.99
2019-01-05T04:44:00.692Z,99.99
2019-01-05T04:45:00.707Z,99.99
2019-01-05T04:46:00.713Z,99.99
2019-01-05T04:47:00.730Z,99.99
2019-01-05T04:48:00.742Z,99.99
2019-01-05T04:49:00.754Z,99.99
2019-01-05T04:50:00.779Z,99.99
2019-01-05T04:51:00.857Z,99.99
2019-01-05T04:52:00.802Z,99.99
2019-01-05T04:53:00.806Z,99.99
2019-01-05T04:54:00.821Z,99.99
2019-01-05T04:55:00.827Z,99.99
2019-01-05T04:56:00.837Z,99.99
2019-01-05T04:57:00.854Z,99.99
2019-01-05T04:58:00.863Z,99.99
2019-01-05T04:59:00.878Z,99.99
2019-01-05T05:00:00.888Z,99.99
2019-01-05T05:01:00.900Z,99.99
2019-01-05T05:02:00.920Z,99.99
2019-01-05T05:03:00.932Z,99.99
2019-01-05T05:04:00.937Z,99.99
2019-01-05T05:05:00.955Z,99.99
2019-01-05T05:06:00.976Z,99.99
2019-01-05T05:07:00.978Z,99.99
2019-01-05T05:08:00.990Z,99.99
2019-01-05T05:09:01.006Z,99.99
2019-01-05T05:10:01.016Z,99.99
2019-01-05T05:11:01.036Z,99.99
2019-01-05T05:12:01.050Z,99.99
2019-01-05T05:13:01.051Z,99.99
2019-01-05T05:14:01.067Z,99.99
2019-01-05T05:15:01.074Z,99.99
2019-01-05T05:16:01.102Z,99.99
2019-01-05T05:17:01.100Z,99.99
2019-01-05T05:18:01.112Z,99.99
2019-01-05T05:19:01.133Z,99.99
2019-01-05T05:20:01.141Z,99.99
2019-01-05T05:21:01.154Z,99.99
2019-01-05T05:22:01.179Z,99.99
2019-01-05T05:23:01.179Z,99.99
2019-01-05T05:24:01.207Z,99.99
2019-01-05T05:25:01.211Z,99.99
2019-01-05T05:26:01.217Z,99.99
2019-01-05T05:27:01.231Z,99.99
2019-01-05T05:28:01.239Z,99.99
2019-01-05T05:29:01.262Z,99.99
2019-01-05T05:30:01.270Z,99.99
2019-01-05T05:31:01.278Z,99.99
2019-01-05T05:32:01.291Z,99.99
2019-01-05T05:33:01.303Z,99.99
2019-01-05T05:34:01.334Z,99.99
2019-01-05T05:35:01.327Z,99.99
2019-01-05T05:36:01.335Z,99.99
2019-01-05T05:37:01.357Z,99.99
2019-01-05T05:38:01.363Z,99.99
2019-01-05T05:39:01.378Z,99.99
2019-01-05T05:40:01.390Z,99.99
2019-01-05T05:41:01.400Z,99.99
2019-01-05T05:42:01.418Z,99.99
2019-01-05T05:43:01.424Z,99.99
2019-01-05T05:44:01.446Z,99.99
2019-01-05T05:45:01.449Z,99.99
2019-01-05T05:46:01.470Z,99.99
2019-01-05T05:47:01.488Z,99.99
2019-01-05T05:48:01.493Z,99.99
2019-01-05T05:49:01.502Z,99.99
2019-01-05T05:50:01.514Z,99.99
2019-01-05T05:51:01.530Z,99.99
2019-01-05T05:52:01.537Z,99.99
2019-01-05T05:53:01.551Z,99.99
2019-01-05T05:54:01.565Z,99.99
2019-01-05T05:55:01.638Z,99.99
2019-01-05T05:56:01.590Z,99.99
2019-01-05T05:57:01.606Z,99.99
2019-01-05T05:58:01.617Z,99.99
2019-01-05T05:59:01.639Z,99.99
2019-01-05T06:00:01.637Z,99.99
2019-01-05T06:01:01.654Z,99.99
2019-01-05T06:02:01.666Z,99.99
2019-01-05T06:03:01.678Z,99.99
2019-01-05T06:04:01.693Z,99.99
2019-01-05T06:05:01.703Z,99.99
2019-01-05T06:06:01.717Z,99.99
2019-01-05T06:07:01.731Z,99.99
2019-01-05T06:08:01.739Z,99.99
2019-01-05T06:09:01.752Z,99.99
2019-01-05T06:10:01.769Z,99.99
2019-01-05T06:11:01.784Z,99.99
2019-01-05T06:12:01.791Z,99.99
2019-01-05T06:13:01.809Z,99.99
2019-01-05T06:14:01.829Z,99.99
2019-01-05T06:15:01.833Z,99.99
2019-01-05T06:16:01.850Z,99.99
2019-01-05T06:17:01.856Z,99.99
2019-01-05T06:18:01.869Z,99.99
2019-01-05T06:19:01.883Z,99.99
2019-01-05T06:20:01.894Z,99.99
2019-01-05T06:21:01.910Z,99.99
2019-01-05T06:22:01.918Z,99.99
2019-01-05T06:23:01.932Z,99.99
2019-01-05T06:24:01.944Z,99.99
2019-01-05T06:25:01.959Z,99.99
2019-01-05T06:26:01.967Z,99.99
2019-01-05T06:27:01.990Z,99.99
2019-01-05T06:28:01.998Z,99.99
2019-01-05T06:29:02.008Z,99.99
2019-01-05T06:30:02.021Z,99.99
2019-01-05T06:31:02.036Z,99.99
2019-01-05T06:32:02.052Z,99.99
2019-01-05T06:33:02.063Z,99.99
2019-01-05T06:34:02.072Z,99.99
2019-01-05T06:35:02.098Z,99.99
2019-01-05T06:36:02.110Z,99.99
2019-01-05T06:37:02.110Z,99.99
2019-01-05T06:38:02.132Z,99.99
2019-01-05T06:39:02.136Z,99.99
2019-01-05T06:40:02.145Z,99.99
2019-01-05T06:41:02.167Z,99.99
2019-01-05T06:42:02.177Z,99.99
2019-01-05T06:43:02.194Z,99.99
2019-01-05T06:44:02.195Z,99.99
2019-01-05T06:45:02.208Z,99.99
2019-01-05T06:46:02.227Z,99.99
2019-01-05T06:47:02.237Z,99.99
2019-01-05T06:48:02.257Z,99.99
2019-01-05T06:49:02.261Z,99.99
2019-01-05T06:50:02.283Z,99.99
2019-01-05T06:51:02.295Z,99.99
2019-01-05T06:52:02.302Z,99.99
2019-01-05T06:53:02.313Z,99.99
2019-01-05T06:54:02.325Z,99.99
2019-01-05T06:55:02.347Z,99.99
2019-01-05T06:56:02.354Z,99.99
2019-01-05T06:57:02.372Z,99.99
2019-01-05T06:58:02.382Z,99.99
2019-01-05T06:59:02.390Z,99.99
2019-01-05T07:00:02.402Z,99.99
2019-01-05T07:01:02.418Z,99.99
2019-01-05T07:02:02.433Z,99.99
2019-01-05T07:03:02.445Z,99.99
2019-01-05T07:04:02.472Z,99.99
2019-01-05T07:05:02.469Z,99.99
2019-01-05T07:06:02.496Z,99.99
2019-01-05T07:07:02.501Z,99.99
2019-01-05T07:08:02.517Z,99.99
2019-01-05T07:09:02.518Z,99.99
2019-01-05T07:10:02.534Z,99.99
2019-01-05T07:11:02.550Z,99.99
2019-01-05T07:12:02.554Z,99.99
2019-01-05T07:13:02.572Z,99.99
2019-01-05T07:14:02.583Z,99.99
2019-01-05T07:15:02.595Z,99.99
2019-01-05T07:16:02.606Z,99.99
2019-01-05T07:17:02.623Z,99.99
2019-01-05T07:18:02.636Z,99.99
2019-01-05T07:19:02.648Z,99.99
2019-01-05T07:20:02.662Z,99.99
2019-01-05T07:21:02.671Z,99.99
2019-01-05T07:22:02.687Z,99.99
2019-01-05T07:23:02.746Z,99.99
2019-01-05T07:24:02.715Z,99.99
2019-01-05T07:25:02.726Z,99.99
2019-01-05T07:26:02.743Z,99.99
2019-01-05T07:27:02.750Z,99.99
2019-01-05T07:28:02.767Z,99.99
2019-01-05T07:29:02.776Z,99.99
2019-01-05T07:30:02.789Z,99.99
2019-01-05T07:31:02.819Z,99.99
2019-01-05T07:32:02.812Z,99.99
2019-01-05T07:33:02.834Z,99.99
2019-01-05T07:34:02.840Z,99.99
2019-01-05T07:35:02.860Z,99.99
2019-01-05T07:36:02.866Z,99.99
2019-01-05T07:37:02.878Z,99.99
2019-01-05T07:38:02.893Z,99.99
2019-01-05T07:39:02.907Z,99.99
2019-01-05T07:40:02.918Z,99.99
2019-01-05T07:41:02.930Z,99.99
2019-01-05T07:42:02.954Z,99.99
2019-01-05T07:43:02.959Z,99.99
2019-01-05T07:44:02.976Z,99.99
2019-01-05T07:45:02.984Z,99.99
2019-01-05T07:46:02.996Z,99.99
2019-01-05T07:47:03.007Z,99.99
2019-01-05T07:48:03.017Z,99.99
2019-01-05T07:49:03.042Z,99.99
2019-01-05T07:50:03.049Z,99.99
2019-01-05T07:51:03.071Z,99.99
2019-01-05T07:52:03.074Z,99.99
2019-01-05T07:53:03.088Z,99.99
2019-01-05T07:54:03.107Z,99.99
2019-01-05T07:55:03.109Z,99.99
2019-01-05T07:56:03.123Z,99.99
2019-01-05T07:57:03.140Z,99.99
2019-01-05T07:58:03.149Z,99.99
2019-01-05T07:59:03.163Z,99.99
2019-01-05T08:00:03.178Z,99.99
2019-01-05T08:01:03.212Z,99.99
2019-01-05T08:02:03.206Z,99.99
2019-01-05T08:03:03.213Z,99.99
2019-01-05T08:04:03.231Z,99.99
2019-01-05T08:05:03.242Z,99.99
2019-01-05T08:06:03.254Z,99.99
2019-01-05T08:07:03.264Z,99.99
2019-01-05T08:08:03.277Z,99.99
2019-01-05T08:09:03.290Z,99.99
2019-01-05T08:10:03.309Z,99.99
2019-01-05T08:11:03.316Z,99.99
2019-01-05T08:12:03.328Z,99.99
2019-01-05T08:13:03.343Z,99.99
2019-01-05T08:14:03.357Z,99.99
2019-01-05T08:15:03.373Z,99.99
2019-01-05T08:16:03.378Z,99.99
2019-01-05T08:17:03.396Z,99.99
2019-01-05T08:18:03.404Z,99.99
2019-01-05T08:19:03.421Z,99.99
2019-01-05T08:20:03.433Z,99.99
2019-01-05T08:21:03.449Z,99.99
2019-01-05T08:22:03.459Z,99.99
2019-01-05T08:23:03.471Z,99.99
2019-01-05T08:24:03.486Z,99.99
2019-01-05T08:25:03.495Z,99.99
2019-01-05T08:26:03.507Z,99.99
2019-01-05T08:27:03.529Z,99.99
2019-01-05T08:28:03.538Z,99.99
2019-01-05T08:29:03.547Z,99.99
2019-01-05T08:30:03.563Z,99.99
2019-01-05T08:31:03.579Z,99.99
2019-01-05T08:32:03.585Z,99.99
2019-01-05T08:33:03.606Z,99.99
2019-01-05T08:34:03.620Z,99.99
2019-01-05T08:35:03.625Z,99.99
2019-01-05T08:36:03.637Z,99.99
2019-01-05T08:37:03.652Z,99.99
2019-01-05T08:38:03.672Z,99.99
2019-01-05T08:39:03.680Z,99.99
2019-01-05T08:40:03.689Z,99.99
2019-01-05T08:41:03.705Z,99.99
2019-01-05T08:42:03.728Z,99.99
2019-01-05T08:43:03.732Z,99.99
2019-01-05T08:44:03.746Z,99.99
2019-01-05T08:45:03.755Z,99.99
2019-01-05T08:46:03.773Z,99.99
2019-01-05T08:47:03.785Z,99.99
2019-01-05T08:48:03.792Z,99.99
2019-01-05T08:49:03.805Z,99.99
2019-01-05T08:50:03.822Z,99.99
2019-01-05T08:51:03.839Z,99.99
2019-01-05T08:52:03.848Z,99.99
2019-01-05T08:53:03.857Z,99.99
2019-01-05T08:54:03.875Z,99.99
2019-01-05T08:55:03.894Z,99.99
2019-01-05T08:56:03.899Z,99.99
2019-01-05T08:57:03.913Z,99.99
2019-01-05T08:58:03.922Z,99.99
2019-01-05T08:59:03.938Z,99.99
2019-01-05T09:00:03.954Z,99.99
2019-01-05T09:01:03.964Z,99.99
2019-01-05T09:02:03.982Z,99.99
2019-01-05T09:03:03.989Z,99.99
2019-01-05T09:04:04.008Z,99.99
2019-01-05T09:05:04.014Z,99.99
2019-01-05T09:06:04.029Z,99.99
2019-01-05T09:07:04.044Z,99.99
2019-01-05T09:08:04.066Z,99.99
2019-01-05T09:09:04.068Z,99.99
2019-01-05T09:10:04.078Z,99.99
2019-01-05T09:11:04.097Z,99.99
2019-01-05T09:12:04.099Z,99.99
2019-01-05T09:13:04.149Z,99.99
2019-01-05T09:14:04.129Z,99.99
2019-01-05T09:15:04.143Z,99.99
2019-01-05T09:16:04.158Z,99.99
2019-01-05T09:17:04.180Z,99.99
2019-01-05T09:18:04.180Z,99.99
2019-01-05T09:19:04.190Z,99.99
2019-01-05T09:20:04.205Z,99.99
2019-01-05T09:21:04.220Z,99.99
2019-01-05T09:22:04.229Z,99.99
2019-01-05T09:23:04.244Z,99.99
2019-01-05T09:24:04.277Z,99.99
2019-01-05T09:25:04.273Z,99.99
2019-01-05T09:26:04.298Z,99.99
2019-01-05T09:27:04.301Z,99.99
2019-01-05T09:28:04.311Z,99.99
2019-01-05T09:29:04.324Z,99.99
2019-01-05T09:30:04.336Z,99.99
2019-01-05T09:31:04.347Z,99.99
2019-01-05T09:32:04.399Z,99.99
2019-01-05T09:33:04.373Z,99.99
2019-01-05T09:34:04.388Z,99.99
2019-01-05T09:35:04.403Z,99.99
2019-01-05T09:36:04.412Z,99.99
2019-01-05T09:37:04.422Z,99.99
2019-01-05T09:38:04.436Z,99.99
2019-01-05T09:39:04.453Z,99.99
2019-01-05T09:40:04.462Z,99.99
2019-01-05T09:41:04.472Z,99.99
2019-01-05T09:42:04.487Z,99.99
2019-01-05T09:43:04.502Z,99.99
2019-01-05T09:44:04.515Z,99.99
2019-01-05T09:45:04.527Z,99.99
2019-01-05T09:46:04.555Z,99.99
2019-01-05T09:47:04.555Z,99.99
2019-01-05T09:48:04.570Z,99.99
2019-01-05T09:49:04.582Z,99.99
2019-01-05T09:50:04.593Z,99.99
2019-01-05T09:51:04.608Z,99.99
2019-01-05T09:52:04.622Z,99.99
2019-01-05T09:53:04.632Z,99.99
2019-01-05T09:54:04.649Z,99.99
2019-01-05T09:55:04.658Z,99.99
2019-01-05T09:56:04.671Z,99.99
2019-01-05T09:57:04.680Z,99.99
2019-01-05T09:58:04.694Z,99.69
2019-01-05T09:59:04.708Z,99.99
2019-01-05T10:00:04.724Z,99.99
2019-01-05T10:01:04.734Z,99.99
2019-01-05T10:02:04.748Z,99.97
2019-01-05T10:03:04.766Z,99.78
2019-01-05T10:04:04.777Z,99.99
2019-01-05T10:05:04.789Z,99.97
2019-01-05T10:06:04.799Z,99.78
2019-01-05T10:07:04.819Z,99.97
2019-01-05T10:08:04.826Z,99.40
2019-01-05T10:09:04.841Z,99.69
2019-01-05T10:10:04.853Z,99.97
2019-01-05T10:11:04.877Z,99.88
2019-01-05T10:12:04.879Z,99.78
2019-01-05T10:13:04.890Z,99.88
2019-01-05T10:14:04.907Z,99.69
2019-01-05T10:15:04.917Z,99.88
2019-01-05T10:16:04.934Z,99.78
2019-01-05T10:17:04.945Z,99.99
2019-01-05T10:18:04.953Z,99.88
2019-01-05T10:19:04.976Z,99.97
2019-01-05T10:20:04.985Z,99.88
2019-01-05T10:21:04.997Z,99.99
2019-01-05T10:22:05.008Z,99.69
2019-01-05T10:23:05.023Z,99.97
2019-01-05T10:24:05.041Z,99.97
2019-01-05T10:25:05.053Z,99.97
2019-01-05T10:26:05.061Z,99.97
2019-01-05T10:27:05.073Z,99.88
2019-01-05T10:28:05.084Z,99.78
2019-01-05T10:29:05.101Z,99.97
2019-01-05T10:30:05.112Z,99.84
2019-01-05T10:31:05.126Z,99.99
2019-01-05T10:32:05.137Z,99.99
2019-01-05T10:33:05.156Z,99.99
2019-01-05T10:34:05.164Z,99.99
2019-01-05T10:35:05.181Z,99.99
2019-01-05T10:36:05.194Z,99.99
2019-01-05T10:37:05.208Z,99.99
2019-01-05T10:38:05.221Z,99.99
2019-01-05T10:39:05.238Z,99.99
2019-01-05T10:40:05.246Z,99.74
2019-01-05T10:41:05.256Z,99.93
2019-01-05T10:42:05.273Z,99.99
2019-01-05T10:43:05.279Z,99.99
2019-01-05T10:44:05.296Z,99.99
2019-01-05T10:45:05.308Z,99.99
2019-01-05T10:46:05.322Z,99.99
2019-01-05T10:47:05.336Z,99.99
2019-01-05T10:48:05.350Z,99.93
2019-01-05T10:49:05.368Z,99.64
2019-01-05T10:50:05.375Z,99.84
2019-01-05T10:51:05.390Z,99.99
2019-01-05T10:52:05.402Z,99.64
2019-01-05T10:53:05.417Z,99.84
2019-01-05T10:54:05.425Z,99.99
2019-01-05T10:55:05.442Z,99.99
2019-01-05T10:56:05.475Z,99.74
2019-01-05T10:57:05.507Z,99.84
2019-01-05T10:58:05.482Z,99.93
2019-01-05T10:59:05.493Z,99.64
2019-01-05T11:00:05.512Z,99.74
2019-01-05T11:01:05.519Z,99.99
2019-01-05T11:02:05.531Z,99.99
2019-01-05T11:03:05.546Z,99.84
2019-01-05T11:04:05.557Z,99.55
2019-01-05T11:05:05.570Z,99.55
2019-01-05T11:06:05.599Z,99.99
2019-01-05T11:07:05.598Z,99.99
2019-01-05T11:08:05.609Z,99.99
2019-01-05T11:09:05.623Z,99.99
2019-01-05T11:10:05.640Z,99.99
2019-01-05T11:11:05.653Z,99.74
2019-01-05T11:12:05.677Z,99.99
2019-01-05T11:13:05.675Z,99.64
2019-01-05T11:14:05.691Z,99.74
2019-01-05T11:15:05.705Z,99.99
2019-01-05T11:16:05.718Z,99.99
2019-01-05T11:17:05.757Z,99.99
2019-01-05T11:18:05.761Z,99.99
2019-01-05T11:19:05.762Z,99.99
2019-01-05T11:20:05.770Z,99.64
2019-01-05T11:21:05.818Z,99.99
2019-01-05T11:22:05.795Z,99.84
2019-01-05T11:23:05.809Z,99.84
2019-01-05T11:24:05.821Z,99.93
2019-01-05T11:25:05.833Z,99.99
2019-01-05T11:26:05.847Z,99.99
2019-01-05T11:27:05.871Z,99.64
2019-01-05T11:28:05.874Z,99.74
2019-01-05T11:29:05.893Z,99.74
2019-01-05T11:30:05.900Z,99.99
2019-01-05T11:31:05.918Z,99.64
2019-01-05T11:32:05.930Z,99.45
2019-01-05T11:33:05.943Z,99.84
2019-01-05T11:34:05.967Z,99.64
2019-01-05T11:35:05.976Z,99.84
2019-01-05T11:36:05.980Z,99.99
2019-01-05T11:37:06.000Z,99.99
2019-01-05T11:38:06.008Z,99.64
2019-01-05T11:39:06.028Z,99.55
2019-01-05T11:40:06.033Z,99.55
2019-01-05T11:41:06.049Z,99.26
2019-01-05T11:42:06.060Z,99.99
2019-01-05T11:43:06.078Z,99.64
2019-01-05T11:44:06.098Z,99.16
2019-01-05T11:45:06.104Z,99.07
2019-01-05T11:46:06.116Z,98.97
2019-01-05T11:47:06.129Z,99.36
2019-01-05T11:48:06.139Z,99.36
2019-01-05T11:49:06.155Z,99.16
2019-01-05T11:50:07.415Z,99.16
2019-01-05T11:51:06.179Z,99.26
2019-01-05T11:52:06.192Z,98.97
2019-01-05T11:53:06.215Z,99.07
2019-01-05T11:54:06.224Z,99.07
2019-01-05T11:55:06.235Z,99.55
2019-01-05T11:56:06.252Z,99.74
2019-01-05T11:57:06.258Z,99.26
2019-01-05T11:58:06.328Z,99.26
2019-01-05T11:59:06.293Z,98.79
2019-01-05T12:00:06.301Z,99.16
2019-01-05T12:01:06.378Z,99.26
2019-01-05T12:02:06.336Z,99.26
2019-01-05T12:03:06.359Z,99.45
2019-01-05T12:04:06.350Z,98.60
2019-01-05T12:05:06.381Z,98.79
2019-01-05T12:06:06.377Z,98.60
2019-01-05T12:07:06.390Z,98.69
2019-01-05T12:08:06.404Z,98.79
2019-01-05T12:09:07.999Z,98.50
2019-01-05T12:10:06.450Z,98.69
2019-01-05T12:11:06.444Z,98.60
2019-01-05T12:12:06.461Z,98.69
2019-01-05T12:13:06.475Z,99.07
2019-01-05T12:14:06.485Z,99.26
2019-01-05T12:15:06.500Z,98.79
2019-01-05T12:16:06.514Z,98.60
2019-01-05T12:17:06.538Z,99.16
2019-01-05T12:18:06.538Z,99.07
2019-01-05T12:19:06.553Z,98.60
2019-01-05T12:20:06.563Z,98.41
2019-01-05T12:21:06.580Z,99.07
2019-01-05T12:22:06.595Z,99.16
2019-01-05T12:23:06.603Z,99.26
2019-01-05T12:24:06.616Z,99.16
2019-01-05T12:25:06.633Z,99.26
2019-01-05T12:26:06.640Z,98.50
2019-01-05T12:27:06.657Z,98.60
2019-01-05T12:28:06.719Z,99.45
2019-01-05T12:29:06.684Z,99.26
2019-01-05T12:30:06.693Z,99.45
2019-01-05T12:31:06.708Z,99.74
2019-01-05T12:32:06.725Z,99.45
2019-01-05T12:33:06.734Z,99.64
2019-01-05T12:34:06.749Z,99.84
2019-01-05T12:35:06.763Z,99.55
2019-01-05T12:36:06.778Z,99.99
2019-01-05T12:37:06.791Z,99.84
2019-01-05T12:38:06.802Z,99.93
2019-01-05T12:39:06.812Z,99.64
2019-01-05T12:40:06.829Z,99.84
2019-01-05T12:41:06.846Z,99.99
2019-01-05T12:42:06.854Z,99.64
2019-01-05T12:43:06.867Z,99.55
2019-01-05T12:44:06.881Z,99.26
2019-01-05T12:45:06.895Z,99.16
2019-01-05T12:46:06.907Z,99.84
2019-01-05T12:47:06.919Z,99.93
2019-01-05T12:48:06.934Z,99.74
2019-01-05T12:49:06.955Z,99.99
2019-01-05T12:50:06.960Z,99.55
2019-01-05T12:51:06.978Z,99.93
2019-01-05T12:52:06.986Z,99.93
2019-01-05T12:53:07.001Z,99.93
2019-01-05T12:54:07.016Z,99.64
2019-01-05T12:55:07.024Z,99.55
2019-01-05T12:56:07.039Z,99.93
2019-01-05T12:57:07.057Z,99.99
2019-01-05T12:58:07.065Z,99.93
2019-01-05T12:59:07.079Z,99.74
2019-01-05T13:00:07.089Z,99.99
2019-01-05T13:01:07.109Z,99.99
2019-01-05T13:02:07.123Z,99.64
2019-01-05T13:03:07.133Z,99.99
2019-01-05T13:04:07.156Z,99.99
2019-01-05T13:05:07.160Z,99.93
2019-01-05T13:06:07.172Z,99.55
2019-01-05T13:07:07.188Z,99.84
2019-01-05T13:08:07.199Z,99.74
2019-01-05T13:09:07.218Z,99.99
2019-01-05T13:10:07.227Z,99.36
2019-01-05T13:11:07.237Z,99.64
2019-01-05T13:12:07.255Z,99.64
2019-01-05T13:13:07.265Z,99.74
2019-01-05T13:14:07.283Z,99.93
2019-01-05T13:15:07.291Z,99.99
2019-01-05T13:16:07.306Z,99.74
2019-01-05T13:17:07.409Z,98.79
2019-01-05T13:18:07.335Z,99.84
2019-01-05T13:19:07.350Z,99.55
2019-01-05T13:20:07.356Z,99.26
2019-01-05T13:21:07.377Z,98.97
2019-01-05T13:22:07.386Z,98.88
2019-01-05T13:23:07.400Z,99.16
2019-01-05T13:24:07.410Z,99.07
2019-01-05T13:25:07.425Z,99.93
2019-01-05T13:26:07.437Z,98.97
2019-01-05T13:27:07.458Z,99.93
2019-01-05T13:28:07.462Z,99.84